This is the latest recevied weather packets stored in our database for station/object EA3HRE-10. If no packets are shown the sender has not sent any weather packets the latest 10 day(s).
| Time | Temp. | Humidity | Pressure | Rain* | Wind** | Luminosity | Snow |
|---|---|---|---|---|---|---|---|
| 1787662984 | 26.11° C | 49% | 1012.5 hPa | - | - | - | - |
| 1787662084 | 26.11° C | 49% | 1012.6 hPa | - | - | - | - |
| 1787661184 | 26.67° C | 49% | 1012.7 hPa | - | - | - | - |
| 1787660284 | 26.11° C | 43% | 1013 hPa | - | - | - | - |
| 1787659384 | 27.78° C | 42% | 1013 hPa | - | - | - | - |
| 1787658484 | 29.44° C | 40% | 1013 hPa | - | - | - | - |
| 1787657584 | 28.89° C | 41% | 1013 hPa | - | - | - | - |
| 1787656684 | 28.33° C | 41% | 1013 hPa | - | - | - | - |
| 1787655784 | 28.33° C | 38% | 1013.2 hPa | - | - | - | - |
| 1787654884 | 28.33° C | 39% | 1013.2 hPa | - | - | - | - |
| 1787653984 | 27.78° C | 39% | 1013.1 hPa | - | - | - | - |
| 1787653084 | 27.78° C | 39% | 1013.3 hPa | - | - | - | - |
| 1787652184 | 27.78° C | 40% | 1013.3 hPa | - | - | - | - |
| 1787651285 | 27.22° C | 40% | 1013.3 hPa | - | - | - | - |
| 1787650384 | 27.22° C | 42% | 1013.3 hPa | - | - | - | - |
| 1787649484 | 27.22° C | 41% | 1013.3 hPa | - | - | - | - |
| 1787648584 | 26.67° C | 43% | 1013.1 hPa | - | - | - | - |
| 1787647680 | 26.67° C | 42% | 1013.2 hPa | - | - | - | - |
| 1787646785 | 26.11° C | 43% | 1013.1 hPa | - | - | - | - |
| 1787646570 | 26.11° C | 44% | 1013 hPa | - | - | - | - |
| 1787645669 | 26.11° C | 45% | 1012.9 hPa | - | - | - | - |
| 1787644770 | 25.56° C | 48% | 1013 hPa | - | - | - | - |
| 1787643870 | 25.56° C | 50% | 1013 hPa | - | - | - | - |
| 1787642969 | 25.56° C | 51% | 1013 hPa | - | - | - | - |
| 1787642069 | 25.56° C | 54% | 1012.8 hPa | - | - | - | - |
* Rain since midnight (hover to see other rain measurements)
** Current wind speed in m/s (hover to see current wind gust speed)